Time,TemperatureF,DewpointF,PressureIn,WindDirection,WindDirectionDegrees,WindSpeedMPH,WindSpeedGustMPH,Humidity,HourlyPrecipIn,Conditions,Clouds,dailyrainin,SoftwareType,DateUTC
2013-10-23 06:03:00,28.8,22.1,29.74,North,-999,0.0,0.0,76,0.00,,,-99.99,FreeWX 2.04,2013-10-23 10:03:00,
2013-10-23 06:08:00,28.8,22.1,29.74,North,-999,0.0,0.0,76,0.00,,,-99.99,FreeWX 2.04,2013-10-23 10:08:00,
2013-10-23 06:13:00,28.8,22.1,29.74,North,-999,0.0,0.0,76,0.00,,,-99.99,FreeWX 2.04,2013-10-23 10:13:00,
2013-10-23 06:18:00,28.8,22.1,29.74,North,-999,0.0,0.0,76,0.00,,,-99.99,FreeWX 2.04,2013-10-23 10:18:00,
2013-10-23 07:26:00,28.4,22.1,29.74,North,-999,0.0,0.0,77,0.00,,,-99.99,FreeWX 2.04,2013-10-23 11:26:00,
2013-10-23 07:31:00,28.2,21.9,29.74,North,-999,0.0,0.0,77,0.00,,,-99.99,FreeWX 2.04,2013-10-23 11:31:00,
2013-10-23 07:36:00,28.2,21.9,29.74,North,-999,0.0,0.0,77,0.00,,,-99.99,FreeWX 2.04,2013-10-23 11:36:00,
2013-10-23 07:41:00,28.2,21.9,29.74,North,-999,0.0,0.0,77,0.00,,,-99.99,FreeWX 2.04,2013-10-23 11:41:00,
2013-10-23 07:46:00,28.0,21.7,29.74,North,-999,0.0,0.0,77,0.00,,,-99.99,FreeWX 2.04,2013-10-23 11:46:00,
2013-10-23 07:51:00,28.0,21.7,29.74,North,-999,0.0,0.0,77,0.00,,,-99.99,FreeWX 2.04,2013-10-23 11:51:00,
2013-10-23 07:56:00,28.0,21.7,29.74,North,-999,0.0,0.0,77,0.00,,,-99.99,FreeWX 2.04,2013-10-23 11:56:00,
2013-10-23 08:01:00,28.0,21.7,29.74,North,-999,0.0,0.0,77,0.00,,,-99.99,FreeWX 2.04,2013-10-23 12:01:00,
2013-10-23 08:06:00,28.0,21.7,29.74,North,-999,0.0,0.0,77,0.00,,,-99.99,FreeWX 2.04,2013-10-23 12:06:00,
2013-10-23 08:11:00,28.0,21.7,29.74,North,-999,0.0,0.0,77,0.00,,,-99.99,FreeWX 2.04,2013-10-23 12:11:00,
2013-10-23 08:16:00,28.2,21.9,29.74,North,-999,0.0,0.0,77,0.00,,,-99.99,FreeWX 2.04,2013-10-23 12:16:00,
2013-10-23 08:21:00,28.2,21.9,29.74,North,-999,0.0,0.0,77,0.00,,,-99.99,FreeWX 2.04,2013-10-23 12:21:00,
2013-10-23 08:26:00,28.4,22.5,29.74,North,-999,0.0,0.0,78,0.00,,,-99.99,FreeWX 2.04,2013-10-23 12:26:00,
2013-10-23 08:31:00,28.4,22.5,29.74,North,-999,0.0,0.0,78,0.00,,,-99.99,FreeWX 2.04,2013-10-23 12:31:00,
2013-10-23 08:36:00,28.6,22.6,29.74,North,-999,0.0,0.0,78,0.00,,,-99.99,FreeWX 2.04,2013-10-23 12:36:00,
2013-10-23 08:41:00,28.6,22.6,29.74,North,-999,0.0,0.0,78,0.00,,,-99.99,FreeWX 2.04,2013-10-23 12:41:00,
2013-10-23 08:46:00,28.8,22.8,29.74,North,-999,0.0,0.0,78,0.00,,,-99.99,FreeWX 2.04,2013-10-23 12:46:00,
2013-10-23 08:51:00,29.1,23.4,29.74,North,-999,0.0,0.0,79,0.00,,,-99.99,FreeWX 2.04,2013-10-23 12:51:00,
2013-10-23 08:56:00,29.1,23.4,29.74,North,-999,0.0,0.0,79,0.00,,,-99.99,FreeWX 2.04,2013-10-23 12:56:00,
2013-10-23 09:01:00,29.3,23.5,29.74,North,-999,0.0,0.0,79,0.00,,,-99.99,FreeWX 2.04,2013-10-23 13:01:00,
2013-10-23 09:06:00,29.5,23.5,29.74,North,-999,0.0,0.0,78,0.00,,,-99.99,FreeWX 2.04,2013-10-23 13:06:00,
2013-10-23 09:11:00,29.7,23.9,29.76,North,-999,0.0,0.0,79,0.00,,,-99.99,FreeWX 2.04,2013-10-23 13:11:00,
2013-10-23 09:16:00,30.0,24.3,29.76,North,-999,0.0,0.0,79,0.00,,,-99.99,FreeWX 2.04,2013-10-23 13:16:00,
2013-10-23 09:21:00,30.4,24.6,29.76,North,-999,0.0,0.0,79,0.00,,,-99.99,FreeWX 2.04,2013-10-23 13:21:00,
2013-10-23 09:26:00,30.6,24.8,29.74,North,-999,0.0,2.7,79,0.00,,,-99.99,FreeWX 2.04,2013-10-23 13:26:00,
2013-10-23 09:31:00,30.7,25.0,29.74,North,-999,0.0,0.0,79,0.00,,,-99.99,FreeWX 2.04,2013-10-23 13:31:00,
2013-10-23 09:36:00,31.1,25.3,29.74,North,-999,0.0,0.0,79,0.00,,,-99.99,FreeWX 2.04,2013-10-23 13:36:00,
2013-10-23 09:41:00,31.3,25.5,29.74,North,-999,0.0,2.7,79,0.00,,,-99.99,FreeWX 2.04,2013-10-23 13:41:00,
2013-10-23 09:46:00,31.6,25.9,29.74,North,-999,0.0,0.0,79,0.00,,,-99.99,FreeWX 2.04,2013-10-23 13:46:00,
2013-10-23 09:51:00,32.0,26.2,29.74,North,-999,0.0,0.0,79,0.00,,,-99.99,FreeWX 2.04,2013-10-23 13:51:00,
2013-10-23 09:56:00,32.2,26.4,29.74,North,-999,0.0,0.0,79,0.00,,,-99.99,FreeWX 2.04,2013-10-23 13:56:00,
2013-10-23 10:01:00,32.5,26.8,29.74,North,-999,0.0,0.0,79,0.00,,,-99.99,FreeWX 2.04,2013-10-23 14:01:00,
2013-10-23 10:06:00,32.9,27.5,29.74,North,-999,0.0,0.0,80,0.00,,,-99.99,FreeWX 2.04,2013-10-23 14:06:00,
2013-10-23 13:24:00,44.4,20.5,29.71,North,-999,0.0,0.0,38,0.00,,,-99.99,FreeWX 2.04,2013-10-23 17:24:00,
2013-10-23 13:30:00,44.8,19.4,29.71,North,-999,0.0,7.8,36,0.00,,,-99.99,FreeWX 2.04,2013-10-23 17:30:00,
2013-10-23 13:35:00,44.4,14.2,29.71,WNW,288,1.0,4.9,29,0.00,,,-99.99,FreeWX 2.04,2013-10-23 17:35:00,
2013-10-23 13:40:00,43.7,13.6,29.74,WNW,300,1.0,5.8,29,0.00,,,-99.99,FreeWX 2.04,2013-10-23 17:40:00,
2013-10-23 13:45:00,43.0,12.2,29.74,West,277,1.0,5.4,28,0.00,,,-99.99,FreeWX 2.04,2013-10-23 17:45:00,
2013-10-23 13:50:00,42.8,12.7,29.74,West,271,1.0,4.5,29,0.00,,,-99.99,FreeWX 2.04,2013-10-23 17:50:00,
2013-10-23 13:55:00,43.3,13.3,29.71,North,-999,0.0,4.9,29,0.00,,,-99.99,FreeWX 2.04,2013-10-23 17:55:00,
2013-10-23 14:00:00,44.1,13.8,29.71,North,-999,0.0,3.1,29,0.00,,,-99.99,FreeWX 2.04,2013-10-23 18:00:00,
2013-10-23 14:05:00,44.8,14.5,29.71,North,-999,0.0,4.9,29,0.00,,,-99.99,FreeWX 2.04,2013-10-23 18:05:00,
2013-10-23 14:10:00,45.5,15.1,29.71,North,-999,0.0,4.5,29,0.00,,,-99.99,FreeWX 2.04,2013-10-23 18:10:00,
2013-10-23 14:15:00,46.2,14.9,29.71,North,-999,0.0,6.7,28,0.00,,,-99.99,FreeWX 2.04,2013-10-23 18:15:00,
2013-10-23 14:20:00,46.9,14.7,29.71,South,189,1.0,5.8,27,0.00,,,-99.99,FreeWX 2.04,2013-10-23 18:20:00,
2013-10-23 14:25:00,47.8,9.9,29.71,NW,309,2.0,6.9,21,0.00,,,-99.99,FreeWX 2.04,2013-10-23 18:25:00,
2013-10-23 14:30:00,47.1,10.2,29.71,NW,305,2.0,6.7,22,0.00,,,-99.99,FreeWX 2.04,2013-10-23 18:30:00,
2013-10-23 14:35:00,46.6,9.9,29.71,NW,312,2.0,4.9,22,0.00,,,-99.99,FreeWX 2.04,2013-10-23 18:35:00,
2013-10-23 14:40:00,46.2,9.5,29.71,NW,312,1.0,5.8,22,0.00,,,-99.99,FreeWX 2.04,2013-10-23 18:40:00,
2013-10-23 14:45:00,45.7,10.9,29.71,WNW,302,1.0,4.9,24,0.00,,,-99.99,FreeWX 2.04,2013-10-23 18:45:00,
2013-10-23 14:50:00,45.0,11.3,29.71,North,-999,0.0,4.0,25,0.00,,,-99.99,FreeWX 2.04,2013-10-23 18:50:00,
2013-10-23 14:55:00,44.8,12.9,29.71,North,-999,0.0,5.4,27,0.00,,,-99.99,FreeWX 2.04,2013-10-23 18:55:00,
2013-10-23 15:00:00,44.8,12.9,29.71,North,-999,0.0,4.0,27,0.00,,,-99.99,FreeWX 2.04,2013-10-23 19:00:00,
2013-10-23 15:05:00,45.0,13.8,29.71,North,-999,0.0,6.3,28,0.00,,,-99.99,FreeWX 2.04,2013-10-23 19:05:00,
2013-10-23 15:10:00,45.1,14.0,29.71,West,278,1.0,5.4,28,0.00,,,-99.99,FreeWX 2.04,2013-10-23 19:10:00,
2013-10-23 15:15:00,45.7,13.6,29.71,WNW,284,2.0,6.3,27,0.00,,,-99.99,FreeWX 2.04,2013-10-23 19:15:00,
2013-10-23 15:20:00,46.0,11.3,29.71,WNW,286,2.0,5.8,24,0.00,,,-99.99,FreeWX 2.04,2013-10-23 19:20:00,
2013-10-23 15:25:00,45.9,11.1,29.71,West,273,1.0,5.4,24,0.00,,,-99.99,FreeWX 2.04,2013-10-23 19:25:00,
2013-10-23 15:30:00,45.9,13.8,29.71,WNW,299,1.0,4.0,27,0.00,,,-99.99,FreeWX 2.04,2013-10-23 19:30:00,
2013-10-23 15:35:00,45.9,13.8,29.71,NW,304,1.0,4.9,27,0.00,,,-99.99,FreeWX 2.04,2013-10-23 19:35:00,
2013-10-23 15:40:00,45.1,14.0,29.71,South,186,1.0,5.8,28,0.00,,,-99.99,FreeWX 2.04,2013-10-23 19:40:00,
2013-10-23 15:45:00,44.1,13.1,29.71,North,-999,0.0,3.6,28,0.00,,,-99.99,FreeWX 2.04,2013-10-23 19:45:00,
2013-10-23 15:50:00,43.9,13.6,29.71,North,-999,0.0,5.8,29,0.00,,,-99.99,FreeWX 2.04,2013-10-23 19:50:00,
2013-10-23 15:55:00,43.5,14.2,29.71,North,-999,0.0,4.5,30,0.00,,,-99.99,FreeWX 2.04,2013-10-23 19:55:00,
2013-10-23 16:00:00,43.0,13.6,29.71,North,-999,0.0,2.7,30,0.00,,,-99.99,FreeWX 2.04,2013-10-23 20:00:00,
2013-10-23 16:05:00,42.1,12.9,29.71,North,-999,0.0,3.6,30,0.00,,,-99.99,FreeWX 2.04,2013-10-23 20:05:00,
2013-10-23 16:10:00,41.9,13.5,29.71,North,-999,0.0,4.9,31,0.00,,,-99.99,FreeWX 2.04,2013-10-23 20:10:00,
2013-10-23 16:15:00,41.5,13.8,29.71,North,-999,0.0,5.4,32,0.00,,,-99.99,FreeWX 2.04,2013-10-23 20:15:00,
2013-10-23 16:20:00,41.4,13.8,29.71,North,-999,0.0,0.0,32,0.00,,,-99.99,FreeWX 2.04,2013-10-23 20:20:00,
2013-10-23 16:25:00,41.4,14.4,29.71,North,-999,0.0,0.0,33,0.00,,,-99.99,FreeWX 2.04,2013-10-23 20:25:00,
2013-10-23 16:30:00,41.4,15.1,29.71,North,-999,0.0,0.0,34,0.00,,,-99.99,FreeWX 2.04,2013-10-23 20:30:00,
2013-10-23 16:35:00,41.4,15.1,29.71,North,-999,0.0,6.3,34,0.00,,,-99.99,FreeWX 2.04,2013-10-23 20:35:00,
2013-10-23 16:40:00,41.2,15.6,29.74,North,-999,0.0,3.6,35,0.00,,,-99.99,FreeWX 2.04,2013-10-23 20:40:00,
2013-10-23 16:45:00,41.4,16.5,29.74,North,-999,0.0,4.9,36,0.00,,,-99.99,FreeWX 2.04,2013-10-23 20:45:00,
2013-10-23 16:50:00,41.4,15.8,29.74,North,-999,0.0,0.0,35,0.00,,,-99.99,FreeWX 2.04,2013-10-23 20:50:00,
2013-10-23 16:55:00,41.5,16.0,29.74,North,-999,0.0,0.0,35,0.00,,,-99.99,FreeWX 2.04,2013-10-23 20:55:00,
2013-10-23 17:00:00,41.9,16.3,29.74,North,-999,0.0,0.0,35,0.00,,,-99.99,FreeWX 2.04,2013-10-23 21:00:00,
2013-10-23 17:05:00,42.1,15.1,29.74,North,-999,0.0,5.4,33,0.00,,,-99.99,FreeWX 2.04,2013-10-23 21:05:00,
2013-10-23 17:10:00,41.7,14.0,29.74,West,266,1.0,5.8,32,0.00,,,-99.99,FreeWX 2.04,2013-10-23 21:10:00,
2013-10-23 17:15:00,41.4,13.8,29.74,North,-999,0.0,4.9,32,0.00,,,-99.99,FreeWX 2.04,2013-10-23 21:15:00,
2013-10-23 17:20:00,41.0,13.5,29.74,North,-999,0.0,4.9,32,0.00,,,-99.99,FreeWX 2.04,2013-10-23 21:20:00,
2013-10-23 17:25:00,40.5,12.9,29.74,North,-999,0.0,3.6,32,0.00,,,-99.99,FreeWX 2.04,2013-10-23 21:25:00,
2013-10-23 17:30:00,40.3,12.7,29.74,North,-999,0.0,3.6,32,0.00,,,-99.99,FreeWX 2.04,2013-10-23 21:30:00,
2013-10-23 17:35:00,40.1,12.6,29.74,North,-999,0.0,4.0,32,0.00,,,-99.99,FreeWX 2.04,2013-10-23 21:35:00,
2013-10-23 17:40:00,39.9,13.1,29.74,North,-999,0.0,3.6,33,0.00,,,-99.99,FreeWX 2.04,2013-10-23 21:40:00,
2013-10-23 17:45:00,39.7,13.1,29.74,North,-999,0.0,4.0,33,0.00,,,-99.99,FreeWX 2.04,2013-10-23 21:45:00,
2013-10-23 17:50:00,39.6,12.9,29.74,North,-999,0.0,3.6,33,0.00,,,-99.99,FreeWX 2.04,2013-10-23 21:50:00,
2013-10-23 17:55:00,39.4,12.7,29.74,North,-999,0.0,4.9,33,0.00,,,-99.99,FreeWX 2.04,2013-10-23 21:55:00,
2013-10-23 18:00:00,39.0,13.1,29.74,North,-999,0.0,4.0,34,0.00,,,-99.99,FreeWX 2.04,2013-10-23 22:00:00,
2013-10-23 18:05:00,38.7,12.7,29.74,North,-999,0.0,0.0,34,0.00,,,-99.99,FreeWX 2.04,2013-10-23 22:05:00,
2013-10-23 18:10:00,38.1,12.9,29.74,North,-999,0.0,0.0,35,0.00,,,-99.99,FreeWX 2.04,2013-10-23 22:10:00,
2013-10-23 18:15:00,37.8,12.6,29.74,North,-999,0.0,0.0,35,0.00,,,-99.99,FreeWX 2.04,2013-10-23 22:15:00,
2013-10-23 18:20:00,37.6,13.1,29.74,North,-999,0.0,0.0,36,0.00,,,-99.99,FreeWX 2.04,2013-10-23 22:20:00,
2013-10-23 18:25:00,37.6,13.1,29.74,North,-999,0.0,0.0,36,0.00,,,-99.99,FreeWX 2.04,2013-10-23 22:25:00,
2013-10-23 18:30:00,37.4,13.5,29.74,North,-999,0.0,0.0,37,0.00,,,-99.99,FreeWX 2.04,2013-10-23 22:30:00,
2013-10-23 18:35:00,37.6,14.9,29.74,North,-999,0.0,2.7,39,0.00,,,-99.99,FreeWX 2.04,2013-10-23 22:35:00,
2013-10-23 18:40:00,37.6,14.9,29.74,North,-999,0.0,4.5,39,0.00,,,-99.99,FreeWX 2.04,2013-10-23 22:40:00,
2013-10-23 18:45:00,37.8,15.1,29.74,North,-999,0.0,3.6,39,0.00,,,-99.99,FreeWX 2.04,2013-10-23 22:45:00,
2013-10-23 18:50:00,37.6,15.4,29.74,North,-999,0.0,6.7,40,0.00,,,-99.99,FreeWX 2.04,2013-10-23 22:50:00,
2013-10-23 18:55:00,37.6,15.4,29.76,North,-999,0.0,4.9,40,0.00,,,-99.99,FreeWX 2.04,2013-10-23 22:55:00,
2013-10-23 19:00:00,37.4,15.3,29.76,North,-999,0.0,0.0,40,0.00,,,-99.99,FreeWX 2.04,2013-10-23 23:00:00,
2013-10-23 19:05:00,36.9,14.9,29.76,North,-999,0.0,2.7,40,0.00,,,-99.99,FreeWX 2.04,2013-10-23 23:05:00,
2013-10-23 19:10:00,36.5,14.5,29.76,North,-999,0.0,0.0,40,0.00,,,-99.99,FreeWX 2.04,2013-10-23 23:10:00,
2013-10-23 19:15:00,36.1,14.2,29.76,North,-999,0.0,0.0,40,0.00,,,-99.99,FreeWX 2.04,2013-10-23 23:15:00,
2013-10-23 19:20:00,35.6,13.6,29.76,North,-999,0.0,0.0,40,0.00,,,-99.99,FreeWX 2.04,2013-10-23 23:20:00,
2013-10-23 19:25:00,35.4,13.5,29.76,North,-999,0.0,0.0,40,0.00,,,-99.99,FreeWX 2.04,2013-10-23 23:25:00,
2013-10-23 19:30:00,35.1,13.3,29.76,North,-999,0.0,0.0,40,0.00,,,-99.99,FreeWX 2.04,2013-10-23 23:30:00,
2013-10-23 19:35:00,34.9,13.6,29.76,North,-999,0.0,0.0,41,0.00,,,-99.99,FreeWX 2.04,2013-10-23 23:35:00,
2013-10-23 19:40:00,34.9,13.6,29.76,North,-999,0.0,0.0,41,0.00,,,-99.99,FreeWX 2.04,2013-10-23 23:40:00,
2013-10-23 19:45:00,34.9,14.2,29.76,North,-999,0.0,0.0,42,0.00,,,-99.99,FreeWX 2.04,2013-10-23 23:45:00,
2013-10-23 19:50:00,34.5,13.8,29.76,North,-999,0.0,0.0,42,0.00,,,-99.99,FreeWX 2.04,2013-10-23 23:50:00,
2013-10-23 19:55:00,34.5,14.4,29.76,North,-999,0.0,0.0,43,0.00,,,-99.99,FreeWX 2.04,2013-10-23 23:55:00,
2013-10-23 20:00:00,34.3,14.2,29.76,North,-999,0.0,0.0,43,0.00,,,-99.99,FreeWX 2.04,2013-10-24 00:00:00,
2013-10-23 20:05:00,34.2,14.0,29.76,North,-999,0.0,2.7,43,0.00,,,-99.99,FreeWX 2.04,2013-10-24 00:05:00,
2013-10-23 20:10:00,34.0,13.8,29.76,North,-999,0.0,0.0,43,0.00,,,-99.99,FreeWX 2.04,2013-10-24 00:10:00,
2013-10-23 20:15:00,34.0,14.4,29.76,North,-999,0.0,0.0,44,0.00,,,-99.99,FreeWX 2.04,2013-10-24 00:15:00,
2013-10-23 20:20:00,34.0,14.9,29.76,North,-999,0.0,0.0,45,0.00,,,-99.99,FreeWX 2.04,2013-10-24 00:20:00,
2013-10-23 20:25:00,34.0,15.4,29.76,North,-999,0.0,2.7,46,0.00,,,-99.99,FreeWX 2.04,2013-10-24 00:25:00,
2013-10-23 20:30:00,34.2,15.6,29.76,North,-999,0.0,0.0,46,0.00,,,-99.99,FreeWX 2.04,2013-10-24 00:30:00,
2013-10-23 20:35:00,34.2,16.0,29.76,North,-999,0.0,0.0,47,0.00,,,-99.99,FreeWX 2.04,2013-10-24 00:35:00,
2013-10-23 20:40:00,34.3,16.2,29.76,North,-999,0.0,3.1,47,0.00,,,-99.99,FreeWX 2.04,2013-10-24 00:40:00,
2013-10-23 20:45:00,34.3,16.7,29.76,North,-999,0.0,3.6,48,0.00,,,-99.99,FreeWX 2.04,2013-10-24 00:45:00,